sensor_id;sensor_type;location;lat;lon;timestamp;P1;durP1;ratioP1;P2;durP2;ratioP2
27489;SDS011;14925;51.026;13.752;2024-01-10T00:01:34;161.55;;;58.35;;
27489;SDS011;14925;51.026;13.752;2024-01-10T00:04:00;162.82;;;58.00;;
27489;SDS011;14925;51.026;13.752;2024-01-10T00:06:25;149.85;;;56.70;;
27489;SDS011;14925;51.026;13.752;2024-01-10T00:08:51;148.35;;;56.58;;
27489;SDS011;14925;51.026;13.752;2024-01-10T00:11:22;152.50;;;58.25;;
27489;SDS011;14925;51.026;13.752;2024-01-10T00:13:47;166.90;;;58.30;;
27489;SDS011;14925;51.026;13.752;2024-01-10T00:16:14;165.25;;;59.65;;
27489;SDS011;14925;51.026;13.752;2024-01-10T00:18:40;144.60;;;54.35;;
27489;SDS011;14925;51.026;13.752;2024-01-10T00:21:08;147.02;;;56.75;;
27489;SDS011;14925;51.026;13.752;2024-01-10T00:23:34;155.80;;;59.45;;
27489;SDS011;14925;51.026;13.752;2024-01-10T00:26:00;155.60;;;57.78;;
27489;SDS011;14925;51.026;13.752;2024-01-10T00:28:28;148.95;;;56.67;;
27489;SDS011;14925;51.026;13.752;2024-01-10T00:30:53;141.95;;;55.45;;
27489;SDS011;14925;51.026;13.752;2024-01-10T00:33:25;147.15;;;54.75;;
27489;SDS011;14925;51.026;13.752;2024-01-10T00:35:50;153.40;;;55.05;;
27489;SDS011;14925;51.026;13.752;2024-01-10T00:38:18;149.38;;;55.75;;
27489;SDS011;14925;51.026;13.752;2024-01-10T00:40:44;143.13;;;55.05;;
27489;SDS011;14925;51.026;13.752;2024-01-10T00:43:09;146.20;;;53.22;;
27489;SDS011;14925;51.026;13.752;2024-01-10T00:45:38;148.60;;;54.85;;
27489;SDS011;14925;51.026;13.752;2024-01-10T00:48:03;144.52;;;51.92;;
27489;SDS011;14925;51.026;13.752;2024-01-10T00:50:31;140.85;;;51.20;;
27489;SDS011;14925;51.026;13.752;2024-01-10T00:52:57;140.25;;;53.25;;
27489;SDS011;14925;51.026;13.752;2024-01-10T00:55:22;141.48;;;54.60;;
27489;SDS011;14925;51.026;13.752;2024-01-10T00:57:48;140.70;;;54.28;;
27489;SDS011;14925;51.026;13.752;2024-01-10T01:00:13;143.82;;;52.92;;
27489;SDS011;14925;51.026;13.752;2024-01-10T01:02:39;133.23;;;51.53;;
27489;SDS011;14925;51.026;13.752;2024-01-10T01:05:05;138.63;;;52.95;;
27489;SDS011;14925;51.026;13.752;2024-01-10T01:07:32;143.88;;;51.30;;
27489;SDS011;14925;51.026;13.752;2024-01-10T01:09:57;142.63;;;51.42;;
27489;SDS011;14925;51.026;13.752;2024-01-10T01:12:22;138.40;;;52.83;;
27489;SDS011;14925;51.026;13.752;2024-01-10T01:14:48;143.75;;;51.97;;
27489;SDS011;14925;51.026;13.752;2024-01-10T01:17:13;131.70;;;49.42;;
27489;SDS011;14925;51.026;13.752;2024-01-10T01:19:38;141.73;;;52.38;;
27489;SDS011;14925;51.026;13.752;2024-01-10T01:22:04;125.93;;;49.47;;
27489;SDS011;14925;51.026;13.752;2024-01-10T01:24:29;136.73;;;51.22;;
27489;SDS011;14925;51.026;13.752;2024-01-10T01:26:55;135.38;;;51.33;;
27489;SDS011;14925;51.026;13.752;2024-01-10T01:29:23;132.60;;;50.42;;
27489;SDS011;14925;51.026;13.752;2024-01-10T01:31:49;135.40;;;49.97;;
27489;SDS011;14925;51.026;13.752;2024-01-10T01:34:14;133.30;;;49.88;;
27489;SDS011;14925;51.026;13.752;2024-01-10T01:36:40;140.15;;;50.35;;
27489;SDS011;14925;51.026;13.752;2024-01-10T01:39:08;130.70;;;48.90;;
27489;SDS011;14925;51.026;13.752;2024-01-10T01:41:34;127.68;;;49.70;;
27489;SDS011;14925;51.026;13.752;2024-01-10T01:43:59;135.52;;;50.78;;
27489;SDS011;14925;51.026;13.752;2024-01-10T01:46:24;139.63;;;51.25;;
27489;SDS011;14925;51.026;13.752;2024-01-10T01:48:50;131.15;;;48.75;;
27489;SDS011;14925;51.026;13.752;2024-01-10T01:51:21;137.38;;;50.38;;
27489;SDS011;14925;51.026;13.752;2024-01-10T01:53:48;130.90;;;48.67;;
27489;SDS011;14925;51.026;13.752;2024-01-10T01:56:14;135.60;;;49.88;;
27489;SDS011;14925;51.026;13.752;2024-01-10T01:58:40;135.52;;;49.58;;
27489;SDS011;14925;51.026;13.752;2024-01-10T02:01:08;145.50;;;50.55;;
27489;SDS011;14925;51.026;13.752;2024-01-10T02:03:35;128.45;;;49.70;;
27489;SDS011;14925;51.026;13.752;2024-01-10T02:06:01;145.65;;;49.00;;
27489;SDS011;14925;51.026;13.752;2024-01-10T02:08:29;125.38;;;46.33;;
27489;SDS011;14925;51.026;13.752;2024-01-10T02:10:57;129.02;;;47.33;;
27489;SDS011;14925;51.026;13.752;2024-01-10T02:13:23;145.13;;;50.35;;
27489;SDS011;14925;51.026;13.752;2024-01-10T02:15:49;121.05;;;47.35;;
27489;SDS011;14925;51.026;13.752;2024-01-10T02:18:14;133.68;;;49.70;;
27489;SDS011;14925;51.026;13.752;2024-01-10T02:20:42;134.60;;;49.15;;
27489;SDS011;14925;51.026;13.752;2024-01-10T02:23:11;137.68;;;48.28;;
27489;SDS011;14925;51.026;13.752;2024-01-10T02:25:37;133.18;;;48.88;;
27489;SDS011;14925;51.026;13.752;2024-01-10T02:28:03;129.50;;;49.22;;
27489;SDS011;14925;51.026;13.752;2024-01-10T02:30:29;126.53;;;48.63;;
27489;SDS011;14925;51.026;13.752;2024-01-10T02:32:55;131.27;;;48.60;;
27489;SDS011;14925;51.026;13.752;2024-01-10T02:35:23;120.30;;;46.70;;
27489;SDS011;14925;51.026;13.752;2024-01-10T02:37:49;137.00;;;48.75;;
27489;SDS011;14925;51.026;13.752;2024-01-10T02:40:25;131.25;;;49.45;;
27489;SDS011;14925;51.026;13.752;2024-01-10T02:42:50;131.35;;;48.95;;
27489;SDS011;14925;51.026;13.752;2024-01-10T02:45:16;123.65;;;46.85;;
27489;SDS011;14925;51.026;13.752;2024-01-10T02:47:42;133.32;;;50.28;;
27489;SDS011;14925;51.026;13.752;2024-01-10T02:50:07;137.07;;;49.53;;
27489;SDS011;14925;51.026;13.752;2024-01-10T02:52:33;129.65;;;48.85;;
27489;SDS011;14925;51.026;13.752;2024-01-10T02:54:58;128.80;;;46.85;;
27489;SDS011;14925;51.026;13.752;2024-01-10T02:57:24;144.70;;;48.65;;
27489;SDS011;14925;51.026;13.752;2024-01-10T02:59:49;135.63;;;48.15;;
27489;SDS011;14925;51.026;13.752;2024-01-10T03:02:17;129.98;;;48.15;;
27489;SDS011;14925;51.026;13.752;2024-01-10T03:04:42;123.70;;;46.95;;
27489;SDS011;14925;51.026;13.752;2024-01-10T03:07:09;128.40;;;49.15;;
27489;SDS011;14925;51.026;13.752;2024-01-10T03:09:35;130.90;;;47.97;;
27489;SDS011;14925;51.026;13.752;2024-01-10T03:12:00;135.43;;;49.13;;
27489;SDS011;14925;51.026;13.752;2024-01-10T03:14:25;133.43;;;48.03;;
27489;SDS011;14925;51.026;13.752;2024-01-10T03:16:51;137.35;;;50.75;;
27489;SDS011;14925;51.026;13.752;2024-01-10T03:19:18;130.82;;;49.58;;
27489;SDS011;14925;51.026;13.752;2024-01-10T03:21:43;135.73;;;50.45;;
27489;SDS011;14925;51.026;13.752;2024-01-10T03:24:27;130.50;;;49.13;;
27489;SDS011;14925;51.026;13.752;2024-01-10T03:26:52;135.70;;;48.67;;
27489;SDS011;14925;51.026;13.752;2024-01-10T03:29:23;127.70;;;47.95;;
27489;SDS011;14925;51.026;13.752;2024-01-10T03:31:55;134.13;;;50.85;;
27489;SDS011;14925;51.026;13.752;2024-01-10T03:34:20;145.15;;;50.97;;
27489;SDS011;14925;51.026;13.752;2024-01-10T03:36:49;131.07;;;48.65;;
27489;SDS011;14925;51.026;13.752;2024-01-10T03:39:14;130.05;;;49.95;;
27489;SDS011;14925;51.026;13.752;2024-01-10T03:41:40;126.18;;;48.08;;
27489;SDS011;14925;51.026;13.752;2024-01-10T03:44:11;127.55;;;46.72;;
27489;SDS011;14925;51.026;13.752;2024-01-10T03:46:36;133.88;;;49.65;;
27489;SDS011;14925;51.026;13.752;2024-01-10T03:49:02;134.85;;;50.22;;
27489;SDS011;14925;51.026;13.752;2024-01-10T03:51:30;127.97;;;45.90;;
27489;SDS011;14925;51.026;13.752;2024-01-10T03:53:56;134.65;;;47.95;;
27489;SDS011;14925;51.026;13.752;2024-01-10T03:56:21;138.88;;;50.63;;
27489;SDS011;14925;51.026;13.752;2024-01-10T03:58:46;128.13;;;47.33;;
27489;SDS011;14925;51.026;13.752;2024-01-10T04:01:15;128.13;;;49.30;;
27489;SDS011;14925;51.026;13.752;2024-01-10T04:03:43;137.52;;;49.90;;
27489;SDS011;14925;51.026;13.752;2024-01-10T04:06:09;123.45;;;48.20;;
27489;SDS011;14925;51.026;13.752;2024-01-10T04:08:35;135.30;;;48.28;;
27489;SDS011;14925;51.026;13.752;2024-01-10T04:11:00;133.52;;;49.80;;
27489;SDS011;14925;51.026;13.752;2024-01-10T04:13:28;136.25;;;50.25;;
27489;SDS011;14925;51.026;13.752;2024-01-10T04:15:53;138.60;;;50.50;;
27489;SDS011;14925;51.026;13.752;2024-01-10T04:18:19;131.77;;;47.58;;
27489;SDS011;14925;51.026;13.752;2024-01-10T04:20:44;130.48;;;47.85;;
27489;SDS011;14925;51.026;13.752;2024-01-10T04:23:09;129.82;;;48.47;;
27489;SDS011;14925;51.026;13.752;2024-01-10T04:25:35;124.55;;;47.70;;
27489;SDS011;14925;51.026;13.752;2024-01-10T04:28:00;123.47;;;45.92;;
27489;SDS011;14925;51.026;13.752;2024-01-10T04:30:26;123.10;;;47.05;;
27489;SDS011;14925;51.026;13.752;2024-01-10T04:32:55;133.60;;;48.33;;
27489;SDS011;14925;51.026;13.752;2024-01-10T04:35:20;126.35;;;47.42;;
27489;SDS011;14925;51.026;13.752;2024-01-10T04:37:46;128.73;;;46.75;;
27489;SDS011;14925;51.026;13.752;2024-01-10T04:40:14;131.27;;;49.10;;
27489;SDS011;14925;51.026;13.752;2024-01-10T04:42:46;124.65;;;46.47;;
27489;SDS011;14925;51.026;13.752;2024-01-10T04:45:11;125.63;;;45.85;;
27489;SDS011;14925;51.026;13.752;2024-01-10T04:47:39;126.00;;;47.10;;
27489;SDS011;14925;51.026;13.752;2024-01-10T04:50:10;132.40;;;46.67;;
27489;SDS011;14925;51.026;13.752;2024-01-10T04:52:35;127.63;;;47.55;;
27489;SDS011;14925;51.026;13.752;2024-01-10T04:55:04;124.32;;;47.83;;
27489;SDS011;14925;51.026;13.752;2024-01-10T04:57:30;131.50;;;48.15;;
27489;SDS011;14925;51.026;13.752;2024-01-10T04:59:56;129.35;;;48.15;;
27489;SDS011;14925;51.026;13.752;2024-01-10T05:02:22;129.55;;;47.53;;
27489;SDS011;14925;51.026;13.752;2024-01-10T05:08:11;131.75;;;46.55;;
27489;SDS011;14925;51.026;13.752;2024-01-10T05:10:40;130.35;;;47.72;;
27489;SDS011;14925;51.026;13.752;2024-01-10T05:13:05;131.13;;;47.13;;
27489;SDS011;14925;51.026;13.752;2024-01-10T05:15:30;143.45;;;49.05;;
27489;SDS011;14925;51.026;13.752;2024-01-10T05:17:56;124.93;;;47.75;;
27489;SDS011;14925;51.026;13.752;2024-01-10T05:20:21;129.18;;;48.03;;
27489;SDS011;14925;51.026;13.752;2024-01-10T05:22:46;125.38;;;47.65;;
27489;SDS011;14925;51.026;13.752;2024-01-10T05:25:12;127.60;;;47.75;;
27489;SDS011;14925;51.026;13.752;2024-01-10T05:27:37;131.20;;;48.28;;
27489;SDS011;14925;51.026;13.752;2024-01-10T05:30:03;128.90;;;46.25;;
27489;SDS011;14925;51.026;13.752;2024-01-10T05:32:28;126.03;;;47.53;;
27489;SDS011;14925;51.026;13.752;2024-01-10T05:34:54;136.77;;;48.80;;
27489;SDS011;14925;51.026;13.752;2024-01-10T05:37:20;126.10;;;46.80;;
27489;SDS011;14925;51.026;13.752;2024-01-10T05:39:45;129.52;;;45.88;;
27489;SDS011;14925;51.026;13.752;2024-01-10T05:42:11;133.70;;;50.40;;
27489;SDS011;14925;51.026;13.752;2024-01-10T05:44:39;127.60;;;47.58;;
27489;SDS011;14925;51.026;13.752;2024-01-10T05:47:05;130.70;;;47.28;;
27489;SDS011;14925;51.026;13.752;2024-01-10T05:49:30;130.40;;;47.75;;
27489;SDS011;14925;51.026;13.752;2024-01-10T05:51:57;138.52;;;49.75;;
27489;SDS011;14925;51.026;13.752;2024-01-10T05:54:23;136.32;;;48.28;;
27489;SDS011;14925;51.026;13.752;2024-01-10T05:56:48;136.98;;;50.35;;
27489;SDS011;14925;51.026;13.752;2024-01-10T05:59:14;134.10;;;47.45;;
27489;SDS011;14925;51.026;13.752;2024-01-10T06:01:41;142.27;;;49.00;;
27489;SDS011;14925;51.026;13.752;2024-01-10T06:04:07;128.02;;;48.97;;
27489;SDS011;14925;51.026;13.752;2024-01-10T06:06:32;128.35;;;48.03;;
27489;SDS011;14925;51.026;13.752;2024-01-10T06:09:01;127.90;;;45.92;;
27489;SDS011;14925;51.026;13.752;2024-01-10T06:11:26;131.57;;;47.38;;
27489;SDS011;14925;51.026;13.752;2024-01-10T06:13:52;129.43;;;47.22;;
27489;SDS011;14925;51.026;13.752;2024-01-10T06:16:18;132.75;;;48.67;;
27489;SDS011;14925;51.026;13.752;2024-01-10T06:21:18;127.13;;;47.97;;
27489;SDS011;14925;51.026;13.752;2024-01-10T06:23:44;139.07;;;54.25;;
27489;SDS011;14925;51.026;13.752;2024-01-10T06:26:09;166.15;;;62.72;;
27489;SDS011;14925;51.026;13.752;2024-01-10T06:28:37;146.75;;;57.53;;
27489;SDS011;14925;51.026;13.752;2024-01-10T06:31:04;145.70;;;52.22;;
27489;SDS011;14925;51.026;13.752;2024-01-10T06:33:29;127.70;;;49.00;;
27489;SDS011;14925;51.026;13.752;2024-01-10T06:35:54;133.32;;;47.63;;
27489;SDS011;14925;51.026;13.752;2024-01-10T06:38:20;135.32;;;49.90;;
27489;SDS011;14925;51.026;13.752;2024-01-10T06:40:47;133.75;;;47.83;;
27489;SDS011;14925;51.026;13.752;2024-01-10T06:43:13;130.52;;;48.15;;
27489;SDS011;14925;51.026;13.752;2024-01-10T06:45:39;124.68;;;47.35;;
27489;SDS011;14925;51.026;13.752;2024-01-10T06:48:05;128.90;;;47.78;;
27489;SDS011;14925;51.026;13.752;2024-01-10T06:50:31;130.23;;;47.65;;
27489;SDS011;14925;51.026;13.752;2024-01-10T06:52:57;127.82;;;47.50;;
27489;SDS011;14925;51.026;13.752;2024-01-10T06:55:25;129.10;;;47.90;;
27489;SDS011;14925;51.026;13.752;2024-01-10T06:57:51;128.35;;;48.65;;
27489;SDS011;14925;51.026;13.752;2024-01-10T07:00:20;128.60;;;47.45;;
27489;SDS011;14925;51.026;13.752;2024-01-10T07:02:47;130.30;;;47.80;;
27489;SDS011;14925;51.026;13.752;2024-01-10T07:05:13;129.75;;;47.60;;
27489;SDS011;14925;51.026;13.752;2024-01-10T07:07:39;117.72;;;46.65;;
27489;SDS011;14925;51.026;13.752;2024-01-10T07:10:04;125.00;;;45.67;;
27489;SDS011;14925;51.026;13.752;2024-01-10T07:12:30;128.57;;;47.30;;
27489;SDS011;14925;51.026;13.752;2024-01-10T07:14:57;132.43;;;49.10;;
27489;SDS011;14925;51.026;13.752;2024-01-10T07:17:22;139.75;;;49.03;;
27489;SDS011;14925;51.026;13.752;2024-01-10T07:19:48;131.68;;;49.30;;
27489;SDS011;14925;51.026;13.752;2024-01-10T07:22:13;128.50;;;49.40;;
27489;SDS011;14925;51.026;13.752;2024-01-10T07:24:48;132.65;;;48.38;;
27489;SDS011;14925;51.026;13.752;2024-01-10T07:27:13;137.60;;;48.10;;
27489;SDS011;14925;51.026;13.752;2024-01-10T07:29:39;135.60;;;51.17;;
27489;SDS011;14925;51.026;13.752;2024-01-10T07:32:07;143.57;;;53.25;;
27489;SDS011;14925;51.026;13.752;2024-01-10T07:34:37;153.95;;;53.30;;
27489;SDS011;14925;51.026;13.752;2024-01-10T07:37:02;149.60;;;53.28;;
27489;SDS011;14925;51.026;13.752;2024-01-10T07:39:28;149.00;;;56.40;;
27489;SDS011;14925;51.026;13.752;2024-01-10T07:41:53;154.75;;;55.33;;
27489;SDS011;14925;51.026;13.752;2024-01-10T07:44:19;143.02;;;52.75;;
27489;SDS011;14925;51.026;13.752;2024-01-10T07:46:44;147.27;;;54.58;;
27489;SDS011;14925;51.026;13.752;2024-01-10T07:49:10;158.30;;;56.95;;
27489;SDS011;14925;51.026;13.752;2024-01-10T07:51:35;147.00;;;56.72;;
27489;SDS011;14925;51.026;13.752;2024-01-10T07:54:00;149.52;;;55.17;;
27489;SDS011;14925;51.026;13.752;2024-01-10T07:56:26;157.52;;;57.67;;
27489;SDS011;14925;51.026;13.752;2024-01-10T07:58:51;143.52;;;54.35;;
27489;SDS011;14925;51.026;13.752;2024-01-10T08:01:20;149.00;;;58.17;;
27489;SDS011;14925;51.026;13.752;2024-01-10T08:03:46;151.30;;;56.13;;
27489;SDS011;14925;51.026;13.752;2024-01-10T08:06:12;147.60;;;56.17;;
27489;SDS011;14925;51.026;13.752;2024-01-10T08:08:38;148.60;;;56.97;;
27489;SDS011;14925;51.026;13.752;2024-01-10T08:11:04;153.00;;;56.75;;
27489;SDS011;14925;51.026;13.752;2024-01-10T08:13:30;148.70;;;56.08;;
27489;SDS011;14925;51.026;13.752;2024-01-10T08:15:55;149.38;;;55.80;;
27489;SDS011;14925;51.026;13.752;2024-01-10T08:18:21;155.95;;;57.50;;
27489;SDS011;14925;51.026;13.752;2024-01-10T08:20:46;139.07;;;52.60;;
27489;SDS011;14925;51.026;13.752;2024-01-10T08:23:11;146.55;;;54.63;;
27489;SDS011;14925;51.026;13.752;2024-01-10T08:25:37;134.32;;;52.70;;
27489;SDS011;14925;51.026;13.752;2024-01-10T08:28:03;133.18;;;51.03;;
27489;SDS011;14925;51.026;13.752;2024-01-10T08:30:28;136.57;;;51.13;;
27489;SDS011;14925;51.026;13.752;2024-01-10T08:32:54;135.48;;;51.38;;
27489;SDS011;14925;51.026;13.752;2024-01-10T08:35:19;131.95;;;51.75;;
27489;SDS011;14925;51.026;13.752;2024-01-10T08:37:45;124.88;;;49.50;;
27489;SDS011;14925;51.026;13.752;2024-01-10T08:40:11;124.47;;;47.50;;
27489;SDS011;14925;51.026;13.752;2024-01-10T08:42:39;127.07;;;47.97;;
27489;SDS011;14925;51.026;13.752;2024-01-10T08:45:07;126.35;;;48.47;;
27489;SDS011;14925;51.026;13.752;2024-01-10T08:47:34;123.72;;;48.35;;
27489;SDS011;14925;51.026;13.752;2024-01-10T08:50:01;127.18;;;47.65;;
27489;SDS011;14925;51.026;13.752;2024-01-10T08:52:27;111.85;;;45.35;;
27489;SDS011;14925;51.026;13.752;2024-01-10T08:54:52;126.53;;;46.92;;
27489;SDS011;14925;51.026;13.752;2024-01-10T08:57:18;118.45;;;46.97;;
27489;SDS011;14925;51.026;13.752;2024-01-10T08:59:43;121.47;;;48.55;;
27489;SDS011;14925;51.026;13.752;2024-01-10T09:02:09;135.13;;;50.30;;
27489;SDS011;14925;51.026;13.752;2024-01-10T09:04:34;120.88;;;48.33;;
27489;SDS011;14925;51.026;13.752;2024-01-10T09:07:00;119.25;;;47.85;;
27489;SDS011;14925;51.026;13.752;2024-01-10T09:09:25;123.53;;;48.17;;
27489;SDS011;14925;51.026;13.752;2024-01-10T09:11:51;128.18;;;49.17;;
27489;SDS011;14925;51.026;13.752;2024-01-10T09:14:16;126.43;;;48.90;;
27489;SDS011;14925;51.026;13.752;2024-01-10T09:16:41;119.28;;;45.90;;
27489;SDS011;14925;51.026;13.752;2024-01-10T09:19:07;113.78;;;46.47;;
27489;SDS011;14925;51.026;13.752;2024-01-10T09:21:35;109.28;;;43.55;;
27489;SDS011;14925;51.026;13.752;2024-01-10T09:24:01;117.78;;;46.15;;
27489;SDS011;14925;51.026;13.752;2024-01-10T09:26:30;115.13;;;43.95;;
27489;SDS011;14925;51.026;13.752;2024-01-10T09:28:55;111.57;;;43.50;;
27489;SDS011;14925;51.026;13.752;2024-01-10T09:31:20;110.82;;;42.38;;
27489;SDS011;14925;51.026;13.752;2024-01-10T09:33:46;107.07;;;42.40;;
27489;SDS011;14925;51.026;13.752;2024-01-10T09:36:11;105.85;;;42.97;;
27489;SDS011;14925;51.026;13.752;2024-01-10T09:38:36;93.80;;;39.13;;
27489;SDS011;14925;51.026;13.752;2024-01-10T09:41:02;93.97;;;39.13;;
27489;SDS011;14925;51.026;13.752;2024-01-10T09:43:32;104.50;;;41.65;;
27489;SDS011;14925;51.026;13.752;2024-01-10T09:46:03;109.93;;;40.88;;
27489;SDS011;14925;51.026;13.752;2024-01-10T09:48:29;103.97;;;40.85;;
27489;SDS011;14925;51.026;13.752;2024-01-10T09:50:56;95.68;;;40.80;;
27489;SDS011;14925;51.026;13.752;2024-01-10T09:53:25;105.93;;;41.30;;
27489;SDS011;14925;51.026;13.752;2024-01-10T09:55:52;100.95;;;40.25;;
27489;SDS011;14925;51.026;13.752;2024-01-10T09:58:22;105.15;;;38.72;;
27489;SDS011;14925;51.026;13.752;2024-01-10T10:00:50;88.20;;;38.53;;
27489;SDS011;14925;51.026;13.752;2024-01-10T10:03:15;99.95;;;39.65;;
27489;SDS011;14925;51.026;13.752;2024-01-10T10:05:42;93.93;;;39.97;;
27489;SDS011;14925;51.026;13.752;2024-01-10T10:08:09;97.32;;;39.67;;
27489;SDS011;14925;51.026;13.752;2024-01-10T10:10:36;95.53;;;39.97;;
27489;SDS011;14925;51.026;13.752;2024-01-10T10:13:07;93.20;;;37.60;;
27489;SDS011;14925;51.026;13.752;2024-01-10T10:15:35;96.03;;;39.30;;
27489;SDS011;14925;51.026;13.752;2024-01-10T10:18:02;92.78;;;39.05;;
27489;SDS011;14925;51.026;13.752;2024-01-10T10:20:29;93.68;;;38.42;;
27489;SDS011;14925;51.026;13.752;2024-01-10T10:23:04;95.60;;;39.13;;
27489;SDS011;14925;51.026;13.752;2024-01-10T10:25:43;88.32;;;36.22;;
27489;SDS011;14925;51.026;13.752;2024-01-10T10:28:10;93.03;;;37.55;;
27489;SDS011;14925;51.026;13.752;2024-01-10T10:30:35;85.70;;;37.88;;
27489;SDS011;14925;51.026;13.752;2024-01-10T10:33:01;93.68;;;38.72;;
27489;SDS011;14925;51.026;13.752;2024-01-10T10:35:27;82.88;;;36.60;;
27489;SDS011;14925;51.026;13.752;2024-01-10T10:37:53;84.63;;;38.95;;
27489;SDS011;14925;51.026;13.752;2024-01-10T10:40:19;92.45;;;38.90;;
27489;SDS011;14925;51.026;13.752;2024-01-10T10:42:46;92.78;;;36.22;;
27489;SDS011;14925;51.026;13.752;2024-01-10T10:45:16;88.07;;;37.10;;
27489;SDS011;14925;51.026;13.752;2024-01-10T10:47:43;84.57;;;36.30;;
27489;SDS011;14925;51.026;13.752;2024-01-10T10:50:13;90.03;;;35.85;;
27489;SDS011;14925;51.026;13.752;2024-01-10T10:52:47;83.90;;;35.85;;
27489;SDS011;14925;51.026;13.752;2024-01-10T10:55:14;87.07;;;37.97;;
27489;SDS011;14925;51.026;13.752;2024-01-10T10:57:42;82.32;;;35.80;;
27489;SDS011;14925;51.026;13.752;2024-01-10T11:00:09;82.63;;;35.30;;
27489;SDS011;14925;51.026;13.752;2024-01-10T11:02:35;82.93;;;34.60;;
27489;SDS011;14925;51.026;13.752;2024-01-10T11:05:06;76.57;;;34.08;;
27489;SDS011;14925;51.026;13.752;2024-01-10T11:07:35;86.28;;;34.58;;
27489;SDS011;14925;51.026;13.752;2024-01-10T11:10:01;82.03;;;34.70;;
27489;SDS011;14925;51.026;13.752;2024-01-10T11:23:42;75.68;;;32.28;;
27489;SDS011;14925;51.026;13.752;2024-01-10T11:26:09;73.40;;;30.98;;
27489;SDS011;14925;51.026;13.752;2024-01-10T11:28:36;72.03;;;31.13;;
27489;SDS011;14925;51.026;13.752;2024-01-10T11:31:05;65.47;;;30.00;;
27489;SDS011;14925;51.026;13.752;2024-01-10T11:33:32;75.00;;;31.90;;
27489;SDS011;14925;51.026;13.752;2024-01-10T11:36:15;73.57;;;31.02;;
27489;SDS011;14925;51.026;13.752;2024-01-10T11:41:23;71.35;;;29.92;;
27489;SDS011;14925;51.026;13.752;2024-01-10T11:46:46;63.40;;;29.20;;
27489;SDS011;14925;51.026;13.752;2024-01-10T11:49:13;63.78;;;27.88;;
27489;SDS011;14925;51.026;13.752;2024-01-10T11:51:44;65.55;;;27.67;;
27489;SDS011;14925;51.026;13.752;2024-01-10T11:54:10;70.93;;;29.67;;
27489;SDS011;14925;51.026;13.752;2024-01-10T11:57:00;63.50;;;28.80;;
27489;SDS011;14925;51.026;13.752;2024-01-10T11:59:29;61.80;;;28.13;;
27489;SDS011;14925;51.026;13.752;2024-01-10T12:01:58;62.67;;;29.23;;
27489;SDS011;14925;51.026;13.752;2024-01-10T12:04:24;127.60;;;62.55;;
27489;SDS011;14925;51.026;13.752;2024-01-10T12:06:54;69.85;;;31.35;;
27489;SDS011;14925;51.026;13.752;2024-01-10T12:09:20;62.95;;;31.05;;
27489;SDS011;14925;51.026;13.752;2024-01-10T12:11:45;78.88;;;40.15;;
27489;SDS011;14925;51.026;13.752;2024-01-10T12:14:11;66.18;;;29.85;;
27489;SDS011;14925;51.026;13.752;2024-01-10T12:16:37;77.95;;;38.50;;
27489;SDS011;14925;51.026;13.752;2024-01-10T12:19:06;65.35;;;30.40;;
27489;SDS011;14925;51.026;13.752;2024-01-10T12:21:32;64.78;;;29.10;;
27489;SDS011;14925;51.026;13.752;2024-01-10T12:23:57;64.30;;;29.45;;
27489;SDS011;14925;51.026;13.752;2024-01-10T12:26:22;61.17;;;28.77;;
27489;SDS011;14925;51.026;13.752;2024-01-10T12:28:54;59.75;;;27.38;;
27489;SDS011;14925;51.026;13.752;2024-01-10T12:31:21;64.00;;;25.95;;
27489;SDS011;14925;51.026;13.752;2024-01-10T12:33:48;66.47;;;26.73;;
27489;SDS011;14925;51.026;13.752;2024-01-10T12:36:14;54.78;;;26.05;;
27489;SDS011;14925;51.026;13.752;2024-01-10T12:38:42;60.40;;;26.25;;
27489;SDS011;14925;51.026;13.752;2024-01-10T12:41:09;57.80;;;25.92;;
27489;SDS011;14925;51.026;13.752;2024-01-10T12:43:35;57.42;;;25.85;;
27489;SDS011;14925;51.026;13.752;2024-01-10T12:48:29;67.85;;;30.55;;
27489;SDS011;14925;51.026;13.752;2024-01-10T12:50:55;51.83;;;24.27;;
27489;SDS011;14925;51.026;13.752;2024-01-10T12:53:21;51.53;;;24.38;;
27489;SDS011;14925;51.026;13.752;2024-01-10T12:55:46;58.08;;;24.48;;
27489;SDS011;14925;51.026;13.752;2024-01-10T12:58:12;51.05;;;23.55;;
27489;SDS011;14925;51.026;13.752;2024-01-10T13:00:37;46.42;;;20.92;;
27489;SDS011;14925;51.026;13.752;2024-01-10T13:03:04;42.88;;;21.65;;
27489;SDS011;14925;51.026;13.752;2024-01-10T13:05:30;45.00;;;21.27;;
27489;SDS011;14925;51.026;13.752;2024-01-10T13:07:56;46.83;;;20.60;;
27489;SDS011;14925;51.026;13.752;2024-01-10T13:10:22;24.45;;;11.82;;
27489;SDS011;14925;51.026;13.752;2024-01-10T13:12:50;19.92;;;9.60;;
27489;SDS011;14925;51.026;13.752;2024-01-10T13:15:19;14.82;;;7.22;;
27489;SDS011;14925;51.026;13.752;2024-01-10T13:17:44;18.02;;;7.82;;
27489;SDS011;14925;51.026;13.752;2024-01-10T13:20:12;17.73;;;7.97;;
27489;SDS011;14925;51.026;13.752;2024-01-10T13:22:37;14.80;;;7.30;;
27489;SDS011;14925;51.026;13.752;2024-01-10T13:25:03;15.55;;;7.43;;
27489;SDS011;14925;51.026;13.752;2024-01-10T13:27:28;18.58;;;8.38;;
27489;SDS011;14925;51.026;13.752;2024-01-10T13:29:54;19.73;;;8.55;;
27489;SDS011;14925;51.026;13.752;2024-01-10T13:32:19;18.88;;;7.97;;
27489;SDS011;14925;51.026;13.752;2024-01-10T13:34:45;18.92;;;8.15;;
27489;SDS011;14925;51.026;13.752;2024-01-10T13:37:10;16.73;;;8.20;;
27489;SDS011;14925;51.026;13.752;2024-01-10T13:39:37;18.83;;;8.00;;
27489;SDS011;14925;51.026;13.752;2024-01-10T13:42:04;17.92;;;8.50;;
27489;SDS011;14925;51.026;13.752;2024-01-10T13:44:30;17.13;;;8.00;;
27489;SDS011;14925;51.026;13.752;2024-01-10T13:46:55;18.20;;;8.70;;
27489;SDS011;14925;51.026;13.752;2024-01-10T13:49:21;18.05;;;8.25;;
27489;SDS011;14925;51.026;13.752;2024-01-10T13:51:46;16.85;;;7.68;;
27489;SDS011;14925;51.026;13.752;2024-01-10T13:54:12;15.13;;;8.23;;
27489;SDS011;14925;51.026;13.752;2024-01-10T13:56:40;15.68;;;7.97;;
27489;SDS011;14925;51.026;13.752;2024-01-10T13:59:05;19.35;;;8.68;;
27489;SDS011;14925;51.026;13.752;2024-01-10T14:01:31;14.45;;;7.72;;
27489;SDS011;14925;51.026;13.752;2024-01-10T14:03:56;15.48;;;8.20;;
27489;SDS011;14925;51.026;13.752;2024-01-10T14:06:24;15.35;;;7.28;;
27489;SDS011;14925;51.026;13.752;2024-01-10T14:08:50;18.30;;;7.82;;
27489;SDS011;14925;51.026;13.752;2024-01-10T14:11:18;15.43;;;7.38;;
27489;SDS011;14925;51.026;13.752;2024-01-10T14:13:44;17.33;;;7.75;;
27489;SDS011;14925;51.026;13.752;2024-01-10T14:16:10;18.35;;;8.90;;
27489;SDS011;14925;51.026;13.752;2024-01-10T14:18:36;16.90;;;8.50;;
27489;SDS011;14925;51.026;13.752;2024-01-10T14:21:01;21.02;;;9.13;;
27489;SDS011;14925;51.026;13.752;2024-01-10T14:23:27;19.17;;;9.20;;